Time;durP1;ratioP1;P1;durP2;ratioP2;P2;SDS_P1;SDS_P2;PMS_P1;PMS_P2;Temp;Humidity;BMP_temperature;BMP_pressure;BME280_temperature;BME280_humidity;BME280_pressure;Samples;Min_cycle;Max_cycle;Signal;HPM_P1;HPM_P2
2022/12/25 00:02:16;;;;;;;;;;;10.00;99.90;;;;;;2616985;54;19978;-70
2022/12/25 00:04:49;;;;;;;;;;;10.00;99.90;;;;;;2618910;39;20648;-70
2022/12/25 00:07:18;;;;;;;;;;;10.00;99.90;;;;;;2619338;47;19942;-69
2022/12/25 00:09:48;;;;;;;;;;;10.00;99.90;;;;;;2621724;54;19946;-70
2022/12/25 00:12:18;;;;;;;;;;;10.00;99.90;;;;;;2618540;54;19950;-70
2022/12/25 00:14:47;;;;;;;;;;;10.10;99.90;;;;;;2618489;47;19973;-70
2022/12/25 00:17:17;;;;;;;;;;;10.10;99.90;;;;;;2617951;54;19969;-70
2022/12/25 00:19:49;;;;;;;;;;;10.10;99.90;;;;;;2618389;54;19954;-70
2022/12/25 00:22:19;;;;;;;;;;;10.00;99.90;;;;;;2617955;54;20038;-69
2022/12/25 00:24:49;;;;;;;;;;;10.00;99.90;;;;;;2617572;54;20939;-70
2022/12/25 00:27:18;;;;;;;;;;;10.00;99.90;;;;;;2619070;39;20326;-69
2022/12/25 00:29:48;;;;;;;;;;;10.00;99.90;;;;;;2618744;54;19946;-70
2022/12/25 00:32:17;;;;;;;;;;;10.10;99.90;;;;;;2618087;54;20485;-70
2022/12/25 00:34:51;;;;;;;;;;;10.00;99.90;;;;;;2618579;54;19951;-70
2022/12/25 00:37:21;;;;;;;;;;;10.10;99.90;;;;;;2617727;54;20451;-70
2022/12/25 00:39:50;;;;;;;;;;;10.10;99.90;;;;;;2617841;54;19946;-70
2022/12/25 00:42:23;;;;;;;;;;;10.10;99.90;;;;;;2617512;54;19981;-69
2022/12/25 00:44:53;;;;;;;;;;;10.10;99.90;;;;;;2618593;54;19946;-70
2022/12/25 00:47:22;;;;;;;;;;;10.10;99.90;;;;;;2617612;54;19946;-70
2022/12/25 00:49:55;;;;;;;;;;;10.10;99.90;;;;;;2618418;54;20025;-70
2022/12/25 00:52:24;;;;;;;;;;;10.10;99.90;;;;;;2618143;51;19954;-70
2022/12/25 00:54:54;;;;;;;;;;;10.20;99.90;;;;;;2618540;54;19951;-69
2022/12/25 00:57:23;;;;;;;;;;;10.10;99.90;;;;;;2618606;54;19957;-70
2022/12/25 00:59:53;;;;;;;;;;;10.10;99.90;;;;;;2621053;47;19993;-70
2022/12/25 01:02:25;;;;;;;;;;;10.10;99.90;;;;;;2622989;54;20506;-71
2022/12/25 01:04:58;;;;;;;;;;;10.10;99.90;;;;;;2626009;54;19983;-71
2022/12/25 01:07:28;;;;;;;;;;;10.10;99.90;;;;;;2623694;54;19950;-70
2022/12/25 01:12:40;;;;;;;;;;;10.10;99.90;;;;;;2616846;39;20390;-70
2022/12/25 01:15:11;;;;;;;;;;;10.10;99.90;;;;;;2619262;47;19947;-70
2022/12/25 01:17:41;;;;;;;;;;;10.10;99.90;;;;;;2620274;54;20058;-70
2022/12/25 01:20:13;;;;;;;;;;;10.10;99.90;;;;;;2618528;54;20455;-71
2022/12/25 01:22:43;;;;;;;;;;;10.10;99.90;;;;;;2618401;54;19938;-69
2022/12/25 01:25:13;;;;;;;;;;;10.10;99.90;;;;;;2618734;54;19953;-69
2022/12/25 01:27:43;;;;;;;;;;;10.10;99.90;;;;;;2619042;54;19955;-70
2022/12/25 01:30:13;;;;;;;;;;;10.10;99.90;;;;;;2623210;54;19993;-70
2022/12/25 01:32:43;;;;;;;;;;;10.10;99.90;;;;;;2617360;54;19954;-70
2022/12/25 01:35:15;;;;;;;;;;;10.10;99.90;;;;;;2618254;39;20391;-70
2022/12/25 01:37:44;;;;;;;;;;;10.10;99.90;;;;;;2617240;54;20451;-70
2022/12/25 01:40:14;;;;;;;;;;;10.10;99.90;;;;;;2617813;54;19950;-70
2022/12/25 01:42:43;;;;;;;;;;;10.10;99.90;;;;;;2620146;47;19947;-70
2022/12/25 01:45:28;;;;;;;;;;;10.10;99.90;;;;;;2625508;54;19974;-70
2022/12/25 01:47:59;;;;;;;;;;;10.10;99.90;;;;;;2622524;39;20449;-71
2022/12/25 01:50:31;;;;;;;;;;;10.10;99.90;;;;;;2619903;54;20414;-70
2022/12/25 01:53:01;;;;;;;;;;;10.10;99.90;;;;;;2624299;54;20466;-73
2022/12/25 01:55:30;;;;;;;;;;;10.10;99.90;;;;;;2623630;54;19946;-71
2022/12/25 01:58:00;;;;;;;;;;;10.10;99.90;;;;;;2622208;54;19950;-70
2022/12/25 02:00:29;;;;;;;;;;;10.10;99.90;;;;;;2618094;54;19965;-70
2022/12/25 02:03:00;;;;;;;;;;;10.10;99.90;;;;;;2619274;54;19950;-70
2022/12/25 02:05:33;;;;;;;;;;;10.10;99.90;;;;;;2622888;54;19958;-71
2022/12/25 02:08:03;;;;;;;;;;;10.10;99.90;;;;;;2623767;46;19934;-71
2022/12/25 02:10:33;;;;;;;;;;;10.10;99.90;;;;;;2624677;54;19950;-70
2022/12/25 02:13:03;;;;;;;;;;;10.10;99.90;;;;;;2627585;54;19946;-71
2022/12/25 02:15:36;;;;;;;;;;;10.10;99.90;;;;;;2620824;54;19959;-70
2022/12/25 02:18:08;;;;;;;;;;;10.10;99.90;;;;;;2618928;47;20482;-70
2022/12/25 02:20:53;;;;;;;;;;;10.20;99.90;;;;;;2619232;54;19946;-70
2022/12/25 02:23:38;;;;;;;;;;;10.10;99.90;;;;;;2620741;39;20521;-69
2022/12/25 02:26:15;;;;;;;;;;;10.10;99.90;;;;;;2618806;47;19950;-70
2022/12/25 02:28:51;;;;;;;;;;;10.20;99.90;;;;;;2619788;47;19957;-71
2022/12/25 02:31:23;;;;;;;;;;;10.20;99.90;;;;;;2622247;54;19946;-70
2022/12/25 02:34:08;;;;;;;;;;;10.20;99.90;;;;;;2623520;54;19950;-69
2022/12/25 02:36:41;;;;;;;;;;;10.20;99.90;;;;;;2621712;54;19959;-70
2022/12/25 02:41:59;;;;;;;;;;;10.20;99.90;;;;;;2624461;47;19969;-70
2022/12/25 03:11:49;;;;;;;;;;;10.20;99.90;;;;;;2616451;54;19973;-68
2022/12/25 03:17:04;;;;;;;;;;;10.20;99.90;;;;;;2613760;47;19970;-69
2022/12/25 03:27:45;;;;;;;;;;;10.20;99.90;;;;;;2616543;54;19957;-68
2022/12/25 03:33:04;;;;;;;;;;;10.20;99.90;;;;;;2616518;54;19967;-68
2022/12/25 03:36:01;;;;;;;;;;;10.20;99.90;;;;;;2616107;47;19980;-68
2022/12/25 04:36:11;;;;;;;;;;;10.20;99.90;;;;;;2618987;39;20334;-69
2022/12/25 04:38:44;;;;;;;;;;;10.20;99.90;;;;;;2617906;54;20426;-70
2022/12/25 04:41:14;;;;;;;;;;;10.20;99.90;;;;;;2620690;54;19946;-69
2022/12/25 04:43:43;;;;;;;;;;;10.20;99.90;;;;;;2621738;54;19974;-68
2022/12/25 04:46:13;;;;;;;;;;;10.40;99.90;;;;;;2619547;54;19935;-69
2022/12/25 04:48:42;;;;;;;;;;;10.20;99.90;;;;;;2616834;54;19967;-69
2022/12/25 04:51:13;;;;;;;;;;;10.20;99.90;;;;;;2618539;47;19990;-68
2022/12/25 04:53:45;;;;;;;;;;;10.20;99.90;;;;;;2618444;39;20392;-67
2022/12/25 04:56:15;;;;;;;;;;;10.20;99.90;;;;;;2618639;39;20366;-68
2022/12/25 04:58:45;;;;;;;;;;;10.20;99.90;;;;;;2621159;54;19923;-67
2022/12/25 05:01:16;;;;;;;;;;;10.20;99.90;;;;;;2626834;54;19998;-68
2022/12/25 05:03:45;;;;;;;;;;;10.20;99.90;;;;;;2624108;52;19970;-67
2022/12/25 05:06:15;;;;;;;;;;;10.20;99.90;;;;;;2627152;54;20054;-69
2022/12/25 05:08:47;;;;;;;;;;;10.20;99.90;;;;;;2625351;54;20003;-68
2022/12/25 05:11:17;;;;;;;;;;;10.20;99.90;;;;;;2618433;54;19946;-67
2022/12/25 05:13:47;;;;;;;;;;;10.20;99.90;;;;;;2615584;47;19950;-69
2022/12/25 05:16:18;;;;;;;;;;;10.20;99.90;;;;;;2618052;54;19944;-68
2022/12/25 05:18:50;;;;;;;;;;;10.20;99.90;;;;;;2618819;54;19986;-69
2022/12/25 05:21:20;;;;;;;;;;;10.20;99.90;;;;;;2620784;47;19946;-68
2022/12/25 05:23:53;;;;;;;;;;;10.20;99.90;;;;;;2622490;54;19947;-67
2022/12/25 05:26:24;;;;;;;;;;;10.20;99.90;;;;;;2618545;54;19957;-69
2022/12/25 05:28:53;;;;;;;;;;;10.20;99.90;;;;;;2617504;54;19978;-68
2022/12/25 05:31:23;;;;;;;;;;;10.20;99.90;;;;;;2618131;54;20478;-72
2022/12/25 05:33:52;;;;;;;;;;;10.20;99.90;;;;;;2617813;54;19942;-69
2022/12/25 05:36:22;;;;;;;;;;;10.20;99.90;;;;;;2618275;54;19938;-68
2022/12/25 05:38:54;;;;;;;;;;;10.20;99.90;;;;;;2619184;54;19946;-69
2022/12/25 05:41:23;;;;;;;;;;;10.10;99.90;;;;;;2618169;54;19953;-67
2022/12/25 05:44:00;;;;;;;;;;;10.00;99.90;;;;;;2618366;54;19934;-68
2022/12/25 05:46:30;;;;;;;;;;;9.90;99.90;;;;;;2618089;54;19950;-68
2022/12/25 05:48:59;;;;;;;;;;;9.90;99.90;;;;;;2617356;54;19951;-68
2022/12/25 05:51:29;;;;;;;;;;;9.90;99.90;;;;;;2618919;39;20629;-67
2022/12/25 05:54:01;;;;;;;;;;;10.00;99.90;;;;;;2620031;47;19945;-69
2022/12/25 05:56:31;;;;;;;;;;;10.00;99.90;;;;;;2618438;54;19950;-68
2022/12/25 05:59:01;;;;;;;;;;;10.00;99.90;;;;;;2618160;46;19961;-68
2022/12/25 06:01:30;;;;;;;;;;;10.00;99.90;;;;;;2618206;54;19998;-68
2022/12/25 06:04:00;;;;;;;;;;;10.00;99.90;;;;;;2618708;54;20638;-68
2022/12/25 06:06:35;;;;;;;;;;;10.00;99.90;;;;;;2617955;54;19954;-68
2022/12/25 06:09:07;;;;;;;;;;;10.10;99.90;;;;;;2621429;54;19946;-69
2022/12/25 06:11:37;;;;;;;;;;;10.10;99.90;;;;;;2628316;54;19934;-67
2022/12/25 06:14:07;;;;;;;;;;;10.10;99.90;;;;;;2628786;46;19946;-66
2022/12/25 06:16:37;;;;;;;;;;;10.10;99.90;;;;;;2627799;54;19951;-67
2022/12/25 06:19:07;;;;;;;;;;;10.10;99.90;;;;;;2620764;54;19954;-68
2022/12/25 06:21:36;;;;;;;;;;;10.10;99.90;;;;;;2621360;54;20731;-67
2022/12/25 06:24:08;;;;;;;;;;;10.10;99.90;;;;;;2622268;54;19958;-67
2022/12/25 06:26:43;;;;;;;;;;;10.10;99.90;;;;;;2617472;54;19954;-65
2022/12/25 06:29:12;;;;;;;;;;;10.10;99.90;;;;;;2618109;54;19946;-67
2022/12/25 06:31:42;;;;;;;;;;;10.20;99.90;;;;;;2618563;39;20396;-67
2022/12/25 06:34:15;;;;;;;;;;;10.20;99.90;;;;;;2618628;54;19939;-67
2022/12/25 06:36:44;;;;;;;;;;;10.20;99.90;;;;;;2618757;54;19981;-67
2022/12/25 06:39:17;;;;;;;;;;;10.10;99.90;;;;;;2619423;46;19951;-68
2022/12/25 06:41:46;;;;;;;;;;;10.10;99.90;;;;;;2621245;47;19954;-66
2022/12/25 06:44:15;;;;;;;;;;;10.10;99.90;;;;;;2621407;54;19962;-67
2022/12/25 06:46:45;;;;;;;;;;;10.10;99.90;;;;;;2617403;54;19942;-68
2022/12/25 06:49:15;;;;;;;;;;;10.10;99.90;;;;;;2618350;54;19943;-67
2022/12/25 06:51:44;;;;;;;;;;;10.10;99.90;;;;;;2624760;54;19954;-70
2022/12/25 06:54:16;;;;;;;;;;;10.10;99.90;;;;;;2624621;54;19954;-67
2022/12/25 06:56:47;;;;;;;;;;;10.10;99.90;;;;;;2622891;54;19950;-67
2022/12/25 06:59:17;;;;;;;;;;;10.10;99.90;;;;;;2619035;54;19953;-66
2022/12/25 07:01:47;;;;;;;;;;;10.10;99.90;;;;;;2619171;54;19953;-69
2022/12/25 07:04:18;;;;;;;;;;;10.20;99.90;;;;;;2624736;54;19942;-67
2022/12/25 07:06:48;;;;;;;;;;;10.20;99.90;;;;;;2626471;54;19998;-67
2022/12/25 07:09:20;;;;;;;;;;;10.20;99.90;;;;;;2626619;54;19946;-66
2022/12/25 07:11:50;;;;;;;;;;;10.20;99.90;;;;;;2623795;47;19950;-66
2022/12/25 07:14:20;;;;;;;;;;;10.20;99.90;;;;;;2624751;54;19946;-66
2022/12/25 07:16:53;;;;;;;;;;;10.20;99.90;;;;;;2621492;54;20426;-67
2022/12/25 07:19:22;;;;;;;;;;;10.20;99.90;;;;;;2618627;54;20002;-66
2022/12/25 07:21:52;;;;;;;;;;;10.20;99.90;;;;;;2618202;54;19950;-67
2022/12/25 07:24:24;;;;;;;;;;;10.20;99.90;;;;;;2619203;54;20010;-67
2022/12/25 07:26:54;;;;;;;;;;;10.20;99.90;;;;;;2618381;47;19953;-67
2022/12/25 07:29:23;;;;;;;;;;;10.30;99.90;;;;;;2619205;54;19997;-66
2022/12/25 07:31:53;;;;;;;;;;;10.30;99.90;;;;;;2619073;54;19986;-67
2022/12/25 07:34:22;;;;;;;;;;;10.30;99.90;;;;;;2618414;54;19942;-67
2022/12/25 07:36:52;;;;;;;;;;;10.30;99.90;;;;;;2619190;54;19954;-66
2022/12/25 07:39:25;;;;;;;;;;;10.20;99.90;;;;;;2619647;39;20383;-68
2022/12/25 07:41:54;;;;;;;;;;;10.20;99.90;;;;;;2619033;54;19950;-69
2022/12/25 07:44:24;;;;;;;;;;;10.20;99.90;;;;;;2619862;39;20593;-67
2022/12/25 07:46:53;;;;;;;;;;;10.20;99.90;;;;;;2618449;54;19965;-67
2022/12/25 07:49:23;;;;;;;;;;;10.20;99.90;;;;;;2618540;54;19950;-67
2022/12/25 07:51:52;;;;;;;;;;;10.20;99.90;;;;;;2616982;47;19953;-68
2022/12/25 07:54:25;;;;;;;;;;;10.30;99.90;;;;;;2618705;54;19950;-67
2022/12/25 07:56:54;;;;;;;;;;;10.30;99.90;;;;;;2618684;54;19972;-69
2022/12/25 07:59:24;;;;;;;;;;;10.30;99.90;;;;;;2617970;54;19950;-67
2022/12/25 08:01:53;;;;;;;;;;;10.30;99.90;;;;;;2619334;54;19935;-69
2022/12/25 08:04:23;;;;;;;;;;;10.30;99.90;;;;;;2618726;54;19953;-69
2022/12/25 08:06:53;;;;;;;;;;;10.30;99.90;;;;;;2618444;47;19990;-68
2022/12/25 08:09:25;;;;;;;;;;;10.30;99.90;;;;;;2618438;54;19946;-67
2022/12/25 08:11:54;;;;;;;;;;;10.30;99.90;;;;;;2618882;54;19946;-68
2022/12/25 08:14:24;;;;;;;;;;;10.40;99.90;;;;;;2621746;39;20387;-75
2022/12/25 08:16:54;;;;;;;;;;;10.40;99.90;;;;;;2617876;54;19939;-74
2022/12/25 08:19:23;;;;;;;;;;;10.40;99.90;;;;;;2618058;54;19938;-73
2022/12/25 08:21:53;;;;;;;;;;;10.40;99.90;;;;;;2618391;47;19950;-73
2022/12/25 08:24:27;;;;;;;;;;;10.40;99.90;;;;;;2616841;54;19950;-74
2022/12/25 08:26:57;;;;;;;;;;;10.40;99.90;;;;;;2617912;54;19939;-73
2022/12/25 08:29:27;;;;;;;;;;;10.40;99.90;;;;;;2618750;54;19973;-74
2022/12/25 08:31:58;;;;;;;;;;;10.30;99.90;;;;;;2619426;54;19947;-76
2022/12/25 08:34:27;;;;;;;;;;;10.40;99.90;;;;;;2621641;47;19947;-75
2022/12/25 08:36:57;;;;;;;;;;;10.40;99.90;;;;;;2619254;54;19951;-75
2022/12/25 08:39:30;;;;;;;;;;;10.40;99.90;;;;;;2618986;47;19950;-74
2022/12/25 08:42:01;;;;;;;;;;;10.40;99.90;;;;;;2618121;54;19953;-73
2022/12/25 08:44:32;;;;;;;;;;;10.40;99.90;;;;;;2618255;54;19961;-73
2022/12/25 08:47:01;;;;;;;;;;;10.50;99.90;;;;;;2618949;54;19946;-73
2022/12/25 08:49:31;;;;;;;;;;;10.30;99.90;;;;;;2618737;54;19942;-74
2022/12/25 08:52:01;;;;;;;;;;;10.30;99.90;;;;;;2615672;47;19947;-76
2022/12/25 08:54:35;;;;;;;;;;;10.30;99.90;;;;;;2616408;47;19947;-74
2022/12/25 08:57:05;;;;;;;;;;;10.30;99.90;;;;;;2619408;39;20623;-74
2022/12/25 08:59:34;;;;;;;;;;;10.30;99.90;;;;;;2618445;39;20642;-75
2022/12/25 09:02:04;;;;;;;;;;;10.40;99.90;;;;;;2616625;47;19935;-75
2022/12/25 09:04:34;;;;;;;;;;;10.40;99.90;;;;;;2621289;54;19946;-74
2022/12/25 09:07:03;;;;;;;;;;;10.40;99.90;;;;;;2624993;54;19953;-75
2022/12/25 09:09:35;;;;;;;;;;;10.40;99.90;;;;;;2627166;54;19939;-75
2022/12/25 09:12:05;;;;;;;;;;;10.40;99.90;;;;;;2624626;54;20070;-76
2022/12/25 09:14:35;;;;;;;;;;;10.40;99.90;;;;;;2620874;54;20503;-76
2022/12/25 09:17:04;;;;;;;;;;;10.30;99.90;;;;;;2619678;54;19939;-74
2022/12/25 09:19:34;;;;;;;;;;;10.30;99.90;;;;;;2620139;51;19990;-74
2022/12/25 09:22:03;;;;;;;;;;;10.30;99.90;;;;;;2618124;54;19950;-75
2022/12/25 09:24:38;;;;;;;;;;;10.30;99.90;;;;;;2618969;47;19946;-75
2022/12/25 09:27:07;;;;;;;;;;;10.30;99.90;;;;;;2620700;54;19946;-75
2022/12/25 09:29:37;;;;;;;;;;;10.40;99.90;;;;;;2620938;47;19942;-74
2022/12/25 09:32:07;;;;;;;;;;;10.40;99.90;;;;;;2621320;54;19950;-75
2022/12/25 09:34:37;;;;;;;;;;;10.40;99.90;;;;;;2625396;54;19938;-78
2022/12/25 09:37:06;;;;;;;;;;;10.40;99.90;;;;;;2628357;54;19939;-75
2022/12/25 09:39:38;;;;;;;;;;;10.40;99.90;;;;;;2623422;47;20526;-75
2022/12/25 09:42:17;;;;;;;;;;;10.40;99.90;;;;;;2623279;46;19942;-75
2022/12/25 09:44:49;;;;;;;;;;;10.50;99.90;;;;;;2620022;46;19942;-75
2022/12/25 09:47:20;;;;;;;;;;;10.50;99.90;;;;;;2617217;54;19947;-75
2022/12/25 09:49:53;;;;;;;;;;;10.50;99.90;;;;;;2617142;47;19975;-74
2022/12/25 09:52:25;;;;;;;;;;;10.50;99.90;;;;;;2617500;54;19947;-75
2022/12/25 09:54:59;;;;;;;;;;;10.50;99.90;;;;;;2615756;54;19998;-74
2022/12/25 09:57:29;;;;;;;;;;;10.50;99.90;;;;;;2615989;47;19954;-74
2022/12/25 09:59:58;;;;;;;;;;;10.60;99.90;;;;;;2617272;47;19955;-76
2022/12/25 10:02:35;;;;;;;;;;;10.60;99.90;;;;;;2615710;47;20030;-74
2022/12/25 10:05:21;;;;;;;;;;;10.70;99.90;;;;;;2617772;54;19945;-73
2022/12/25 10:07:56;;;;;;;;;;;10.80;99.90;;;;;;2617933;54;19977;-73
2022/12/25 10:10:38;;;;;;;;;;;10.80;99.90;;;;;;2618922;54;19946;-62
2022/12/25 10:13:12;;;;;;;;;;;10.80;99.90;;;;;;2618665;54;19950;-72
2022/12/25 10:15:48;;;;;;;;;;;10.90;99.90;;;;;;2616826;47;19938;-69
2022/12/25 10:18:33;;;;;;;;;;;10.90;99.90;;;;;;2614961;54;19957;-69
2022/12/25 10:21:05;;;;;;;;;;;11.00;99.90;;;;;;2617236;54;20495;-71
2022/12/25 10:23:43;;;;;;;;;;;11.00;99.90;;;;;;2615820;47;19973;-69
2022/12/25 10:26:17;;;;;;;;;;;11.00;99.90;;;;;;2615117;39;20347;-73
2022/12/25 10:28:47;;;;;;;;;;;11.00;99.90;;;;;;2614739;54;19954;-70
2022/12/25 10:31:21;;;;;;;;;;;11.00;99.90;;;;;;2616639;54;19954;-71
2022/12/25 10:33:52;;;;;;;;;;;11.20;99.90;;;;;;2614716;54;19957;-70
2022/12/25 10:36:23;;;;;;;;;;;11.10;99.90;;;;;;2616581;54;19967;-72
2022/12/25 10:38:53;;;;;;;;;;;11.00;99.90;;;;;;2617116;39;20358;-70
2022/12/25 10:41:33;;;;;;;;;;;10.70;99.90;;;;;;2616003;47;19947;-71
2022/12/25 10:44:13;;;;;;;;;;;11.00;99.90;;;;;;2616566;54;19973;-58
2022/12/25 10:46:43;;;;;;;;;;;11.00;99.90;;;;;;2617565;54;19954;-70
2022/12/25 10:49:16;;;;;;;;;;;10.90;99.90;;;;;;2618224;54;19939;-73
2022/12/25 10:51:45;;;;;;;;;;;10.80;99.90;;;;;;2616139;39;20415;-68
2022/12/25 10:54:23;;;;;;;;;;;10.90;99.90;;;;;;2616889;47;20460;-67
2022/12/25 10:56:59;;;;;;;;;;;11.00;99.90;;;;;;2616395;54;19950;-68
2022/12/25 10:59:30;;;;;;;;;;;11.10;99.90;;;;;;2617191;54;19942;-67
2022/12/25 11:02:06;;;;;;;;;;;11.20;99.90;;;;;;2618510;54;19979;-65
2022/12/25 11:04:36;;;;;;;;;;;11.30;99.90;;;;;;2619590;54;19973;-64
2022/12/25 11:07:07;;;;;;;;;;;11.30;99.90;;;;;;2617236;54;19969;-64
2022/12/25 11:09:37;;;;;;;;;;;11.40;99.90;;;;;;2615144;47;19946;-64
2022/12/25 11:12:18;;;;;;;;;;;11.50;99.90;;;;;;2617913;54;19954;-67
2022/12/25 11:14:54;;;;;;;;;;;11.40;99.90;;;;;;2622479;54;20531;-66
2022/12/25 11:17:25;;;;;;;;;;;11.40;99.90;;;;;;2622250;47;19954;-66
2022/12/25 11:19:55;;;;;;;;;;;11.40;99.90;;;;;;2620151;47;19950;-65
2022/12/25 11:22:24;;;;;;;;;;;11.40;99.90;;;;;;2616506;54;20474;-66
2022/12/25 11:24:54;;;;;;;;;;;11.50;99.90;;;;;;2621161;47;19950;-66
2022/12/25 11:27:28;;;;;;;;;;;11.50;99.90;;;;;;2619630;47;19994;-67
2022/12/25 11:30:00;;;;;;;;;;;11.50;99.90;;;;;;2614251;54;19946;-67
2022/12/25 11:32:30;;;;;;;;;;;11.50;99.90;;;;;;2616985;54;19947;-66
2022/12/25 11:35:02;;;;;;;;;;;11.50;99.90;;;;;;2624975;54;19947;-67
2022/12/25 11:37:34;;;;;;;;;;;11.60;99.90;;;;;;2624088;39;20152;-66
2022/12/25 11:40:05;;;;;;;;;;;11.50;99.90;;;;;;2615888;54;19958;-66
2022/12/25 11:42:38;;;;;;;;;;;11.60;99.90;;;;;;2615459;54;19946;-66
2022/12/25 11:45:12;;;;;;;;;;;11.60;99.90;;;;;;2614350;54;19950;-67
2022/12/25 11:47:44;;;;;;;;;;;11.70;99.90;;;;;;2618867;54;19950;-67
2022/12/25 11:50:19;;;;;;;;;;;11.90;99.90;;;;;;2624202;47;19954;-65
2022/12/25 11:52:49;;;;;;;;;;;11.70;99.90;;;;;;2626549;47;20439;-65
2022/12/25 11:55:21;;;;;;;;;;;11.80;99.90;;;;;;2626624;47;19975;-65
2022/12/25 11:57:56;;;;;;;;;;;11.80;99.90;;;;;;2627235;54;19951;-66
2022/12/25 12:00:25;;;;;;;;;;;11.90;99.90;;;;;;2625262;54;19943;-65
2022/12/25 12:02:58;;;;;;;;;;;11.80;99.90;;;;;;2624257;54;19942;-63
2022/12/25 12:05:30;;;;;;;;;;;11.90;99.90;;;;;;2617693;54;19954;-63
2022/12/25 12:08:01;;;;;;;;;;;11.90;99.90;;;;;;2615573;54;20034;-63
2022/12/25 12:10:41;;;;;;;;;;;12.00;99.90;;;;;;2615693;54;19994;-63
2022/12/25 12:13:22;;;;;;;;;;;12.00;99.90;;;;;;2614654;54;19950;-62
2022/12/25 12:15:52;;;;;;;;;;;12.10;99.90;;;;;;2615570;46;19946;-64
2022/12/25 12:18:23;;;;;;;;;;;12.10;99.90;;;;;;2610853;47;19977;-62
2022/12/25 12:21:05;;;;;;;;;;;12.10;99.90;;;;;;2614116;54;19946;-62
2022/12/25 12:23:37;;;;;;;;;;;12.10;99.90;;;;;;2614845;54;19950;-68
2022/12/25 12:26:07;;;;;;;;;;;12.10;99.90;;;;;;2619539;54;19957;-72
